Time;durP1;ratioP1;P1;durP2;ratioP2;P2;SDS_P1;SDS_P2;PMS_P1;PMS_P2;Temp;Humidity;BMP_temperature;BMP_pressure;BME280_temperature;BME280_humidity;BME280_pressure;Samples;Min_cycle;Max_cycle;Signal;HPM_P1;HPM_P2
2023/09/04 00:01:08;;;;;;;4.68;1.30;;;;;;;;;;5009521;28;20505;-77
2023/09/04 00:03:35;;;;;;;2.95;1.58;;;;;;;;;;5009505;28;20030;-77
2023/09/04 00:06:01;;;;;;;1.85;1.30;;;;;;;;;;5009781;28;20053;-77
2023/09/04 00:08:27;;;;;;;3.00;1.48;;;;;;;;;;5009146;28;20025;-77
2023/09/04 00:10:52;;;;;;;2.47;1.25;;;18.10;99.90;;;;;;5012635;28;20037;-77
2023/09/04 00:13:18;;;;;;;3.58;1.40;;;18.10;99.90;;;;;;5001713;28;20038;-77
2023/09/04 00:15:44;;;;;;;2.83;1.52;;;18.10;99.30;;;;;;5009413;28;20400;-76
2023/09/04 00:18:11;;;;;;;2.88;1.45;;;;;;;;;;5009300;28;20050;-77
2023/09/04 00:20:37;;;;;;;2.67;1.42;;;;;;;;;;5008984;28;20546;-77
2023/09/04 00:23:03;;;;;;;1.50;1.30;;;;;;;;;;5009210;28;20109;-77
2023/09/04 00:25:29;;;;;;;3.45;1.73;;;;;;;;;;5009120;28;20052;-77
2023/09/04 00:27:57;;;;;;;3.03;1.30;;;;;;;;;;5009147;28;20061;-77
2023/09/04 00:30:23;;;;;;;6.28;2.35;;;;;;;;;;5009558;28;20140;-77
2023/09/04 00:32:50;;;;;;;2.75;1.58;;;;;;;;;;5008761;28;20156;-77
2023/09/04 00:35:16;;;;;;;2.20;1.30;;;;;;;;;;5009018;28;20057;-77
2023/09/04 00:37:42;;;;;;;4.03;2.08;;;;;;;;;;5009138;28;20034;-77
2023/09/04 00:40:08;;;;;;;1.67;1.15;;;17.70;99.70;;;;;;5009260;28;20034;-77
2023/09/04 00:42:34;;;;;;;6.05;1.27;;;;;;;;;;5013875;28;20034;-77
2023/09/04 00:45:00;;;;;;;4.95;1.25;;;;;;;;;;5016921;28;20030;-77
2023/09/04 00:47:28;;;;;;;3.78;1.38;;;17.60;99.90;;;;;;5008688;28;20038;-77
2023/09/04 00:49:54;;;;;;;9.07;1.38;;;;;;;;;;5009041;28;20383;-76
2023/09/04 00:52:22;;;;;;;5.57;2.00;;;17.40;99.90;;;;;;5008632;28;20518;-77
2023/09/04 00:54:48;;;;;;;;;;;17.40;99.90;;;;;;5009222;28;20057;-77
2023/09/04 00:57:14;;;;;;;2.80;1.50;;;17.40;99.90;;;;;;5008595;28;19990;-77
2023/09/04 00:59:41;;;;;;;1.63;1.10;;;;;;;;;;5008908;28;20037;-77
2023/09/04 01:02:07;;;;;;;2.55;1.52;;;;;;;;;;5008587;28;20026;-76
2023/09/04 01:04:33;;;;;;;7.07;2.08;;;;;;;;;;5008993;28;20033;-77
2023/09/04 01:06:59;;;;;;;2.38;1.55;;;;;;;;;;5008724;28;20032;-77
2023/09/04 01:09:26;;;;;;;2.25;1.38;;;;;;;;;;5009129;28;20883;-78
2023/09/04 01:12:14;;;;;;;2.33;1.60;;;17.60;99.90;;;;;;5008320;28;20026;-76
2023/09/04 01:14:45;;;;;;;2.55;1.40;;;17.40;99.90;;;;;;5003938;28;20030;-77
2023/09/04 01:17:12;;;;;;;3.65;1.23;;;17.30;99.90;;;;;;5008424;28;20045;-77
2023/09/04 01:19:39;;;;;;;2.28;1.13;;;17.20;99.90;;;;;;5008740;28;20391;-77
2023/09/04 01:22:08;;;;;;;1.23;1.00;;;17.10;99.90;;;;;;5008084;28;20040;-77
2023/09/04 01:24:34;;;;;;;1.83;1.17;;;17.20;99.90;;;;;;5008410;28;20022;-77
2023/09/04 01:27:17;;;;;;;1.92;0.95;;;17.10;99.90;;;;;;5008709;28;20061;-76
2023/09/04 01:29:55;;;;;;;3.95;1.15;;;17.10;99.90;;;;;;5008471;28;20403;-77
2023/09/04 01:32:58;;;;;;;2.38;1.10;;;17.10;99.90;;;;;;5008321;28;20108;-77
2023/09/04 01:35:25;;;;;;;4.00;1.33;;;17.10;99.90;;;;;;5008056;28;20095;-78
2023/09/04 01:37:51;;;;;;;2.67;1.02;;;;;;;;;;5008704;28;20033;-77
2023/09/04 01:40:18;;;;;;;2.88;1.45;;;;;;;;;;5006805;28;20105;-77
2023/09/04 01:42:44;;;;;;;3.58;1.88;;;;;;;;;;5008184;28;20057;-77
2023/09/04 01:45:10;;;;;;;2.10;1.15;;;;;;;;;;5008028;28;20066;-77
2023/09/04 01:47:36;;;;;;;2.10;1.17;;;;;;;;;;5008066;28;20033;-77
2023/09/04 01:50:02;;;;;;;2.40;1.25;;;;;;;;;;5008716;28;20442;-77
2023/09/04 01:52:28;;;;;;;1.20;0.90;;;;;;;;;;5006490;28;20133;-77
2023/09/04 01:54:54;;;;;;;4.60;1.23;;;17.00;99.90;;;;;;5007167;28;20584;-77
2023/09/04 01:57:20;;;;;;;5.45;1.25;;;;;;;;;;5007884;28;20108;-77
2023/09/04 01:59:46;;;;;;;1.20;1.05;;;;;;;;;;5004320;28;20122;-76
2023/09/04 02:02:12;;;;;;;3.72;1.90;;;;;;;;;;5014481;28;20108;-77
2023/09/04 02:04:38;;;;;;;1.50;1.27;;;;;;;;;;5012001;28;20026;-77
2023/09/04 02:07:04;;;;;;;1.88;1.33;;;;;;;;;;5011467;28;20033;-77
2023/09/04 02:09:30;;;;;;;2.45;1.05;;;;;;;;;;5011530;28;20030;-77
2023/09/04 02:11:55;;;;;;;2.83;1.50;;;16.90;99.90;;;;;;5011469;28;20479;-77
2023/09/04 02:14:21;;;;;;;1.73;1.15;;;;;;;;;;5011246;28;20070;-77
2023/09/04 02:16:47;;;;;;;3.85;1.00;;;;;;;;;;5011609;28;20045;-77
2023/09/04 02:19:13;;;;;;;2.83;1.48;;;;;;;;;;5011035;28;20514;-77
2023/09/04 02:21:40;;;;;;;1.85;1.58;;;;;;;;;;5011398;28;20044;-77
2023/09/04 02:24:06;;;;;;;2.70;1.05;;;;;;;;;;5011786;28;20056;-77
2023/09/04 02:26:32;;;;;;;3.28;1.48;;;;;;;;;;5011378;28;20044;-77
2023/09/04 02:28:58;;;;;;;3.35;1.83;;;;;;;;;;5009823;28;20022;-77
2023/09/04 02:31:24;;;;;;;2.08;1.50;;;;;;;;;;5011388;28;20117;-77
2023/09/04 02:33:50;;;;;;;2.35;1.35;;;;;;;;;;5011304;28;20410;-77
2023/09/04 02:36:16;;;;;;;3.35;1.80;;;;;;;;;;5011347;28;20072;-77
2023/09/04 02:38:42;;;;;;;2.17;1.80;;;;;;;;;;5011364;28;20040;-77
2023/09/04 02:41:08;;;;;;;3.90;1.55;;;16.30;99.90;;;;;;5011487;28;20441;-77
2023/09/04 02:43:34;;;;;;;3.38;1.65;;;;;;;;;;5011160;28;20029;-76
2023/09/04 02:46:00;;;;;;;4.00;1.60;;;;;;;;;;5011164;28;20057;-76
2023/09/04 02:48:26;;;;;;;6.85;2.45;;;;;;;;;;5010982;28;20060;-77
2023/09/04 02:50:57;;;;;;;4.05;1.77;;;16.40;99.90;;;;;;5010652;28;20537;-77
2023/09/04 02:53:26;;;;;;;4.20;1.55;;;;;;;;;;5011106;28;20084;-77
2023/09/04 02:55:52;;;;;;;2.35;1.27;;;;;;;;;;5010789;28;20073;-77
2023/09/04 02:58:18;;;;;;;3.47;1.80;;;16.30;99.90;;;;;;5010857;28;20022;-77
2023/09/04 03:00:44;;;;;;;3.78;1.98;;;;;;;;;;5011044;28;20112;-76
2023/09/04 03:03:11;;;;;;;1.50;1.40;;;15.60;99.90;;;;;;5010431;28;20467;-76
2023/09/04 03:05:37;;;;;;;3.53;1.60;;;;;;;;;;5011325;28;20104;-77
2023/09/04 03:08:03;;;;;;;4.43;1.80;;;;;;;;;;5010647;28;20533;-77
2023/09/04 03:10:32;;;;;;;2.80;2.05;;;16.00;99.90;;;;;;5010680;28;20789;-77
2023/09/04 03:12:58;;;;;;;5.97;1.45;;;;;;;;;;5009211;28;20034;-76
2023/09/04 03:15:24;;;;;;;2.33;1.52;;;;;;;;;;5010289;28;20080;-76
2023/09/04 03:17:50;;;;;;;4.75;1.90;;;;;;;;;;5010113;28;20057;-77
2023/09/04 03:20:19;;;;;;;2.78;2.00;;;15.80;99.90;;;;;;5010105;28;20075;-77
2023/09/04 03:22:46;;;;;;;2.92;2.20;;;;;;;;;;5010444;28;20022;-77
2023/09/04 03:25:12;;;;;;;3.40;1.90;;;;;;;;;;5010294;28;20140;-77
2023/09/04 03:27:38;;;;;;;2.92;1.80;;;;;;;;;;5009797;28;20084;-77
2023/09/04 03:30:04;;;;;;;2.97;1.60;;;16.10;99.90;;;;;;5010214;28;20058;-76
2023/09/04 03:32:30;;;;;;;3.28;1.50;;;;;;;;;;5009822;28;20029;-76
2023/09/04 03:34:57;;;;;;;2.83;1.65;;;;;;;;;;5010090;28;20034;-77
2023/09/04 03:37:24;;;;;;;3.33;1.83;;;;;;;;;;5010111;28;20610;-77
2023/09/04 03:39:50;;;;;;;3.33;1.30;;;;;;;;;;5009982;28;20046;-77
2023/09/04 03:42:16;;;;;;;2.22;1.40;;;;;;;;;;5010025;28;20020;-76
2023/09/04 03:44:42;;;;;;;3.67;1.75;;;;;;;;;;5009927;28;20510;-76
2023/09/04 03:47:08;;;;;;;2.15;1.75;;;;;;;;;;5009775;28;20029;-76
2023/09/04 03:49:34;;;;;;;1.85;1.60;;;;;;;;;;5010097;28;20022;-77
2023/09/04 03:52:00;;;;;;;3.38;1.58;;;;;;;;;;5009606;28;20036;-76
2023/09/04 03:54:26;;;;;;;3.95;1.70;;;;;;;;;;5009849;28;20030;-77
2023/09/04 03:56:52;;;;;;;1.93;1.37;;;;;;;;;;5009721;28;20025;-77
2023/09/04 03:59:18;;;;;;;4.30;1.73;;;15.40;99.90;;;;;;5006498;28;20026;-77
2023/09/04 04:01:44;;;;;;;1.55;1.20;;;;;;;;;;5012654;28;20033;-77
2023/09/04 04:04:13;;;;;;;1.83;1.33;;;15.60;99.90;;;;;;5018202;28;20676;-77
2023/09/04 04:06:38;;;;;;;2.40;1.23;;;15.80;99.90;;;;;;5009321;28;20403;-76
2023/09/04 04:09:06;;;;;;;3.75;1.80;;;;;;;;;;5009521;28;20029;-77
2023/09/04 04:11:33;;;;;;;2.03;1.13;;;;;;;;;;5009188;28;20407;-77
2023/09/04 04:13:59;;;;;;;2.55;1.13;;;;;;;;;;5009251;28;20040;-77
2023/09/04 04:16:25;;;;;;;3.38;1.50;;;;;;;;;;5009330;28;20042;-76
2023/09/04 04:18:51;;;;;;;4.43;1.55;;;15.20;99.90;;;;;;5009662;28;20557;-76
2023/09/04 04:21:17;;;;;;;2.22;1.27;;;;;;;;;;5009019;28;20105;-76
2023/09/04 04:23:43;;;;;;;1.80;1.42;;;;;;;;;;5009152;28;20029;-77
2023/09/04 04:26:09;;;;;;;2.63;1.45;;;;;;;;;;5007730;28;20037;-77
2023/09/04 04:28:35;;;;;;;3.50;1.27;;;;;;;;;;5009332;28;20033;-77
2023/09/04 04:31:02;;;;;;;2.22;1.52;;;;;;;;;;5009411;28;20042;-77
2023/09/04 04:33:28;;;;;;;2.78;1.08;;;;;;;;;;5009246;28;20053;-76
2023/09/04 04:35:54;;;;;;;4.10;1.60;;;15.70;99.90;;;;;;5009012;28;20018;-77
2023/09/04 04:38:20;;;;;;;2.92;1.90;;;;;;;;;;5009210;28;20552;-77
2023/09/04 04:40:46;;;;;;;2.40;1.77;;;;;;;;;;5008484;28;20111;-77
2023/09/04 04:43:12;;;;;;;2.72;1.45;;;15.40;99.90;;;;;;5009267;28;20115;-76
2023/09/04 04:45:38;;;;;;;3.97;1.73;;;;;;;;;;5009150;28;20093;-77
2023/09/04 04:48:04;;;;;;;2.90;2.00;;;;;;;;;;5009173;28;20026;-77
2023/09/04 04:50:30;;;;;;;6.18;1.98;;;;;;;;;;5013871;28;20052;-77
2023/09/04 04:52:56;;;;;;;2.65;2.05;;;;;;;;;;5009241;28;20060;-77
2023/09/04 04:55:22;;;;;;;4.25;2.28;;;;;;;;;;5008946;28;20026;-76
2023/09/04 04:57:48;;;;;;;4.00;2.03;;;15.30;99.90;;;;;;5009385;28;20110;-76
2023/09/04 05:00:14;;;;;;;6.57;3.67;;;;;;;;;;5008477;28;20022;-76
2023/09/04 05:02:40;;;;;;;6.10;2.55;;;;;;;;;;5009516;28;20030;-76
2023/09/04 05:05:08;;;;;;;3.92;2.97;;;;;;;;;;5008645;28;20453;-76
2023/09/04 05:07:34;;;;;;;3.05;1.73;;;;;;;;;;5008617;28;20530;-77
2023/09/04 05:10:00;;;;;;;5.78;1.92;;;;;;;;;;5008638;28;20026;-76
2023/09/04 05:12:26;;;;;;;3.45;1.75;;;;;;;;;;5008962;28;20121;-77
2023/09/04 05:14:52;;;;;;;8.80;1.85;;;;;;;;;;5008357;28;20034;-76
2023/09/04 05:17:18;;;;;;;2.33;1.55;;;;;;;;;;5008904;28;20038;-77
2023/09/04 05:19:45;;;;;;;5.35;1.80;;;;;;;;;;5008457;28;20137;-77
2023/09/04 05:22:10;;;;;;;4.75;2.28;;;;;;;;;;5008569;28;20590;-77
2023/09/04 05:24:36;;;;;;;3.35;2.05;;;;;;;;;;5008210;28;20057;-76
2023/09/04 05:27:03;;;;;;;6.15;1.98;;;15.30;99.90;;;;;;5008613;28;20120;-77
2023/09/04 05:29:29;;;;;;;2.92;2.17;;;;;;;;;;5008504;28;20547;-77
2023/09/04 05:31:56;;;;;;;4.28;2.35;;;;;;;;;;5008830;28;20041;-77
2023/09/04 05:34:22;;;;;;;2.75;1.85;;;;;;;;;;5008874;28;20629;-77
2023/09/04 05:36:48;;;;;;;3.70;1.92;;;;;;;;;;5008835;28;20452;-77
2023/09/04 05:39:14;;;;;;;4.07;1.70;;;;;;;;;;5010584;28;20061;-77
2023/09/04 05:41:40;;;;;;;6.65;1.80;;;;;;;;;;5010135;28;20034;-77
2023/09/04 05:44:06;;;;;;;4.88;2.10;;;;;;;;;;5010695;28;20029;-78
2023/09/04 05:46:33;;;;;;;3.58;2.10;;;;;;;;;;5005145;28;20033;-77
2023/09/04 05:48:59;;;;;;;4.90;1.45;;;;;;;;;;5010700;28;20572;-77
2023/09/04 05:51:25;;;;;;;3.03;2.05;;;;;;;;;;5008034;28;20026;-77
2023/09/04 05:53:51;;;;;;;5.80;2.00;;;;;;;;;;5005208;28;20038;-77
2023/09/04 05:56:17;;;;;;;3.70;1.55;;;;;;;;;;5009595;28;20723;-76
2023/09/04 05:58:44;;;;;;;1.38;1.17;;;;;;;;;;5010584;28;20529;-77
2023/09/04 06:01:10;;;;;;;3.10;1.55;;;;;;;;;;5010208;28;20061;-77
2023/09/04 06:03:36;;;;;;;6.75;1.88;;;;;;;;;;5011326;28;20601;-77
2023/09/04 06:06:02;;;;;;;3.03;1.95;;;;;;;;;;5011287;28;20057;-77
2023/09/04 06:08:30;;;;;;;9.55;2.47;;;19.50;96.60;;;;;;5008855;28;20029;-85
2023/09/04 06:10:56;;;;;;;2.53;2.13;;;;;;;;;;5010791;28;20087;-77
2023/09/04 06:13:22;;;;;;;3.80;2.35;;;;;;;;;;5010318;28;20088;-77
2023/09/04 06:15:51;;;;;;;5.28;2.33;;;22.30;84.80;;;;;;5010179;28;20634;-77
2023/09/04 06:18:19;;;;;;;4.15;1.60;;;;;;;;;;5009390;28;20450;-77
2023/09/04 06:20:45;;;;;;;2.78;1.88;;;;;;;;;;5006512;28;20589;-78
2023/09/04 06:23:10;;;;;;;3.22;2.20;;;25.80;75.30;;;;;;5009108;28;20037;-76
2023/09/04 06:25:39;;;;;;;3.55;2.40;;;27.90;68.70;;;;;;5010567;28;20040;-77
2023/09/04 06:28:06;;;;;;;4.80;2.20;;;29.70;51.90;;;;;;5009792;28;20037;-77
2023/09/04 06:30:31;;;;;;;2.30;1.65;;;31.30;52.20;;;;;;5009995;28;20080;-78
2023/09/04 06:32:57;;;;;;;7.47;1.83;;;;;;;;;;5010639;28;20038;-78
2023/09/04 06:35:23;;;;;;;3.03;2.58;;;;;;;;;;5009883;28;20030;-78
2023/09/04 06:37:50;;;;;;;3.30;1.63;;;35.50;41.50;;;;;;5009245;28;20416;-84
2023/09/04 06:40:16;;;;;;;3.22;1.98;;;;;;;;;;4998479;28;20491;-85
2023/09/04 06:42:42;;;;;;;3.42;1.77;;;;;;;;;;5012219;28;20107;-84
2023/09/04 06:45:08;;;;;;;2.00;1.73;;;;;;;;;;5011461;28;20022;-83
2023/09/04 06:47:34;;;;;;;2.63;1.55;;;;;;;;;;5007062;28;20123;-78
2023/09/04 06:50:01;;;;;;;2.65;1.40;;;;;;;;;;5007996;28;20025;-77
2023/09/04 06:52:27;;;;;;;3.65;1.90;;;;;;;;;;5017217;28;20088;-78
2023/09/04 06:54:53;;;;;;;2.95;1.10;;;;;;;;;;5011533;28;20058;-78
2023/09/04 06:57:19;;;;;;;2.72;1.58;;;;;;;;;;5006564;28;20038;-78
2023/09/04 06:59:45;;;;;;;4.45;1.83;;;;;;;;;;5006639;28;20026;-78
2023/09/04 07:02:11;;;;;;;2.63;1.67;;;;;;;;;;5005555;28;20457;-77
2023/09/04 07:04:37;;;;;;;4.85;2.38;;;42.80;35.80;;;;;;5009756;28;20033;-78
2023/09/04 07:07:03;;;;;;;4.05;2.00;;;;;;;;;;5009589;28;20581;-78
2023/09/04 07:09:29;;;;;;;;;;;43.40;28.60;;;;;;5009560;28;20026;-78
2023/09/04 07:11:55;;;;;;;4.57;1.83;;;;;;;;;;5008958;28;22557;-78
2023/09/04 07:14:21;;;;;;;2.47;1.77;;;44.70;29.80;;;;;;5009486;28;20034;-78
2023/09/04 07:16:46;;;;;;;;;;;45.00;29.00;;;;;;5006188;28;20081;-78
2023/09/04 07:19:12;;;;;;;3.30;1.38;;;46.20;32.20;;;;;;5005067;28;20457;-78
2023/09/04 07:21:40;;;;;;;2.75;1.50;;;;;;;;;;5009485;28;20025;-77
2023/09/04 07:24:06;;;;;;;2.10;0.90;;;;;;;;;;5008406;28;20376;-83
2023/09/04 07:26:32;;;;;;;3.20;1.20;;;;;;;;;;5002662;28;20104;-84
2023/09/04 07:28:58;;;;;;;1.73;0.95;;;47.20;26.50;;;;;;5005888;28;20113;-83
2023/09/04 07:31:24;;;;;;;3.47;0.90;;;;;;;;;;5011459;28;20045;-82
2023/09/04 07:33:50;;;;;;;1.42;0.90;;;47.70;26.00;;;;;;5010697;28;20104;-84
2023/09/04 07:36:16;;;;;;;1.60;0.88;;;;;;;;;;5004406;28;20040;-80
2023/09/04 07:38:44;;;;;;;3.72;0.95;;;45.30;26.50;;;;;;5006251;28;20028;-79
2023/09/04 07:41:10;;;;;;;2.05;1.10;;;;;;;;;;5001367;28;20033;-81
2023/09/04 07:43:36;;;;;;;1.70;1.02;;;48.30;29.10;;;;;;5004270;28;20820;-81
2023/09/04 07:46:03;;;;;;;2.97;1.05;;;49.20;24.70;;;;;;5006850;28;20025;-81
2023/09/04 07:48:29;;;;;;;2.42;1.38;;;;;;;;;;5007798;28;20027;-81
2023/09/04 07:50:56;;;;;;;2.25;1.17;;;;;;;;;;5009033;28;20026;-81
2023/09/04 07:53:23;;;;;;;1.63;0.93;;;50.60;24.30;;;;;;5016731;28;20033;-81
2023/09/04 07:55:49;;;;;;;3.30;1.10;;;50.80;25.90;;;;;;5012304;28;20398;-81
2023/09/04 07:58:15;;;;;;;1.45;1.13;;;;;;;;;;5010723;28;20025;-80
2023/09/04 08:00:51;;;;;;;1.83;0.90;;;52.50;27.90;;;;;;5021276;28;20029;-85
2023/09/04 08:03:17;;;;;;;1.17;0.98;;;;;;;;;;5018220;28;20517;-85
2023/09/04 08:05:43;;;;;;;1.27;0.98;;;;;;;;;;5019978;28;20018;-86
2023/09/04 08:08:10;;;;;;;1.27;0.70;;;;;;;;;;5010742;28;20704;-83
2023/09/04 08:10:40;;;;;;;1.88;0.70;;;54.10;23.50;;;;;;5014406;28;20026;-84
2023/09/04 08:13:09;;;;;;;2.13;1.92;;;54.40;22.90;;;;;;5012530;28;20045;-77
2023/09/04 08:15:35;;;;;;;4.38;1.30;;;;;;;;;;5008836;28;20014;-77
2023/09/04 08:18:01;;;;;;;1.73;0.85;;;54.80;26.90;;;;;;5008301;28;20046;-79
2023/09/04 08:20:27;;;;;;;4.28;1.35;;;;;;;;;;5008479;28;20033;-78
2023/09/04 08:22:53;;;;;;;2.55;1.20;;;;;;;;;;5005194;28;20053;-78
2023/09/04 08:25:18;;;;;;;1.75;1.27;;;57.30;26.40;;;;;;5004562;28;20057;-78
2023/09/04 08:27:44;;;;;;;2.17;1.45;;;;;;;;;;5006584;28;20136;-77
2023/09/04 08:30:11;;;;;;;1.88;1.50;;;;;;;;;;5008786;28;20026;-78
2023/09/04 08:32:37;;;;;;;1.83;1.42;;;;;;;;;;5008098;28;20038;-78
2023/09/04 08:35:03;;;;;;;3.78;1.40;;;57.50;25.30;;;;;;5008161;28;20034;-77
2023/09/04 08:37:29;;;;;;;1.65;1.10;;;58.40;22.30;;;;;;5007928;28;20046;-77
2023/09/04 08:39:55;;;;;;;1.67;1.33;;;;;;;;;;5008458;28;20057;-78
2023/09/04 08:42:21;;;;;;;3.70;1.70;;;;;;;;;;5006026;28;20501;-77
2023/09/04 08:44:49;;;;;;;10.07;2.53;;;58.50;21.10;;;;;;5005527;28;20489;-78
2023/09/04 08:47:16;;;;;;;5.88;2.10;;;;;;;;;;4999294;28;20034;-80
2023/09/04 08:49:42;;;;;;;10.48;2.78;;;58.50;21.40;;;;;;4990415;28;20030;-77
2023/09/04 08:52:08;;;;;;;7.03;2.40;;;58.80;25.50;;;;;;5006944;28;20071;-77
2023/09/04 08:54:34;;;;;;;10.20;2.42;;;58.90;21.30;;;;;;5008158;28;20033;-77
2023/09/04 08:57:00;;;;;;;6.68;2.03;;;59.20;23.00;;;;;;5007058;28;20506;-76
2023/09/04 08:59:26;;;;;;;8.25;2.10;;;;;;;;;;5014253;28;20053;-77
2023/09/04 09:01:53;;;;;;;6.88;1.77;;;58.60;20.30;;;;;;5005995;28;20026;-77
2023/09/04 09:04:21;;;;;;;2.10;1.85;;;60.00;25.20;;;;;;5007698;28;20053;-81
2023/09/04 09:06:48;;;;;;;4.10;1.42;;;;;;;;;;5000377;28;20502;-81
2023/09/04 09:09:15;;;;;;;1.60;1.50;;;60.30;20.90;;;;;;5007120;28;20057;-80
2023/09/04 09:11:42;;;;;;;3.13;2.58;;;59.90;21.80;;;;;;5006938;28;20120;-79
2023/09/04 09:14:08;;;;;;;5.15;2.38;;;59.20;22.30;;;;;;5007303;28;20017;-79
2023/09/04 09:16:35;;;;;;;2.58;1.67;;;;;;;;;;4995128;28;20120;-77
2023/09/04 09:19:01;;;;;;;3.50;1.85;;;60.30;20.80;;;;;;5007499;28;20018;-78
2023/09/04 09:21:29;;;;;;;3.05;1.65;;;60.70;20.90;;;;;;4995093;28;20065;-77
2023/09/04 09:24:16;;;;;;;2.00;1.50;;;60.70;20.70;;;;;;5007459;28;20026;-78
2023/09/04 09:26:48;;;;;;;3.55;2.25;;;60.20;25.30;;;;;;5007575;28;20462;-78
2023/09/04 09:29:14;;;;;;;2.38;1.50;;;59.80;20.80;;;;;;5007092;28;20087;-78
2023/09/04 09:31:42;;;;;;;2.78;1.50;;;60.30;21.00;;;;;;5008063;28;20036;-77
2023/09/04 09:34:09;;;;;;;1.98;1.77;;;60.30;20.90;;;;;;5007132;28;20036;-78
2023/09/04 09:36:35;;;;;;;3.08;1.40;;;;;;;;;;5007590;28;20018;-78
2023/09/04 09:39:02;;;;;;;1.60;1.50;;;60.50;20.90;;;;;;5007387;28;20057;-78
2023/09/04 09:41:29;;;;;;;2.80;1.80;;;60.50;21.20;;;;;;5007361;28;20030;-79
2023/09/04 09:43:55;;;;;;;1.58;1.48;;;;;;;;;;5007449;28;20029;-78
2023/09/04 09:46:20;;;;;;;3.05;1.85;;;60.70;25.60;;;;;;5007663;28;20030;-78
2023/09/04 09:48:47;;;;;;;2.95;1.65;;;60.70;20.80;;;;;;5006830;28;20498;-78
2023/09/04 09:51:15;;;;;;;2.72;1.63;;;60.90;25.40;;;;;;5007212;28;20104;-78
2023/09/04 09:53:49;;;;;;;1.92;1.40;;;60.60;25.30;;;;;;5007327;28;20112;-77
2023/09/04 09:56:17;;;;;;;6.38;1.67;;;59.60;20.30;;;;;;4996613;28;20081;-78
2023/09/04 09:58:45;;;;;;;5.60;1.40;;;60.30;25.30;;;;;;4995057;28;20026;-77
2023/09/04 10:01:15;;;;;;;1.83;1.55;;;60.10;25.30;;;;;;5007301;28;20045;-78
2023/09/04 10:03:41;;;;;;;2.38;1.63;;;60.70;25.30;;;;;;5007350;28;20030;-82
2023/09/04 10:06:08;;;;;;;4.32;1.60;;;60.80;20.80;;;;;;5006692;28;20550;-82
2023/09/04 10:08:39;;;;;;;2.42;1.58;;;61.30;20.80;;;;;;5007255;28;20049;-81
2023/09/04 10:11:10;;;;;;;3.15;1.63;;;61.20;20.70;;;;;;5006150;28;20535;-79
2023/09/04 10:14:01;;;;;;;7.28;1.70;;;61.40;20.60;;;;;;5010106;28;20037;-79
2023/09/04 10:16:39;;;;;;;1.92;1.70;;;60.70;20.50;;;;;;5011864;28;20046;-80
2023/09/04 10:19:09;;;;;;;5.47;1.55;;;60.40;20.70;;;;;;5026035;28;20029;-80
2023/09/04 10:21:40;;;;;;;3.42;1.60;;;60.80;21.00;;;;;;5009212;28;20470;-79
2023/09/04 10:24:12;;;;;;;8.07;1.50;;;61.00;20.80;;;;;;5010605;28;20060;-79
2023/09/04 10:27:04;;;;;;;1.67;1.27;;;61.00;22.50;;;;;;5009291;28;20036;-80
2023/09/04 10:29:34;;;;;;;7.13;1.35;;;61.70;20.80;;;;;;4999838;28;20526;-79
2023/09/04 10:32:01;;;;;;;4.80;2.63;;;61.70;21.10;;;;;;5010008;28;20033;-79
2023/09/04 10:34:28;;;;;;;1.50;1.30;;;;;;;;;;5010656;28;20049;-80
2023/09/04 10:36:54;;;;;;;2.25;1.90;;;;;;;;;;5010249;28;20356;-79
2023/09/04 10:39:20;;;;;;;2.03;1.83;;;;;;;;;;5010143;28;20045;-79
2023/09/04 10:41:46;;;;;;;2.83;1.70;;;60.20;25.70;;;;;;5009938;28;20082;-79
2023/09/04 10:44:32;;;;;;;2.10;1.23;;;60.90;21.00;;;;;;5009849;28;20543;-80
2023/09/04 10:46:58;;;;;;;2.75;1.70;;;;;;;;;;5008597;28;20406;-80
2023/09/04 10:49:30;;;;;;;5.05;1.85;;;61.40;24.30;;;;;;5009996;28;20068;-80
2023/09/04 10:51:56;;;;;;;1.63;1.50;;;61.00;25.20;;;;;;5009595;28;20637;-81
2023/09/04 10:54:25;;;;;;;1.33;1.23;;;60.80;20.60;;;;;;5009962;28;20116;-79
2023/09/04 10:56:57;;;;;;;2.42;2.03;;;60.00;20.20;;;;;;5010396;28;20025;-79
2023/09/04 10:59:24;;;;;;;1.50;1.40;;;59.40;20.30;;;;;;5010272;28;20026;-81
2023/09/04 11:01:51;;;;;;;2.08;1.60;;;;;;;;;;5009625;28;20025;-80
2023/09/04 11:04:45;;;;;;;3.35;1.67;;;59.10;20.60;;;;;;5009922;28;20049;-80
2023/09/04 11:07:20;;;;;;;3.67;1.42;;;59.10;20.50;;;;;;5009244;28;20109;-79
2023/09/04 11:09:52;;;;;;;3.15;1.60;;;59.70;23.90;;;;;;5009681;28;20060;-79
2023/09/04 11:12:22;;;;;;;1.67;1.48;;;59.40;20.60;;;;;;5008237;28;20042;-80
2023/09/04 11:14:52;;;;;;;1.98;1.40;;;59.30;20.60;;;;;;5009820;28;20057;-79
2023/09/04 11:17:20;;;;;;;1.63;1.23;;;58.70;21.30;;;;;;5009225;28;20082;-80
2023/09/04 11:19:47;;;;;;;1.40;1.25;;;58.90;25.40;;;;;;5008656;28;20038;-79
2023/09/04 11:22:20;;;;;;;1.40;1.17;;;59.00;20.60;;;;;;5009321;28;20076;-80
2023/09/04 11:24:46;;;;;;;3.50;1.10;;;58.60;22.60;;;;;;5009693;28;20030;-80
2023/09/04 11:27:12;;;;;;;1.40;1.20;;;57.60;24.40;;;;;;5009437;28;20036;-80
2023/09/04 11:29:38;;;;;;;9.63;1.40;;;;;;;;;;5009727;28;20462;-80
2023/09/04 11:32:05;;;;;;;1.77;1.00;;;56.20;21.10;;;;;;5010670;28;20025;-79
2023/09/04 11:34:31;;;;;;;2.10;1.38;;;;;;;;;;5009299;28;20037;-80
2023/09/04 11:36:57;;;;;;;3.78;1.17;;;;;;;;;;5008692;28;20468;-78
2023/09/04 11:39:23;;;;;;;6.80;1.73;;;;;;;;;;5008858;28;20033;-80
2023/09/04 11:41:50;;;;;;;1.58;1.15;;;;;;;;;;5008992;28;20029;-80
2023/09/04 11:44:16;;;;;;;6.72;1.70;;;;;;;;;;5009721;28;20072;-80
2023/09/04 11:46:43;;;;;;;1.58;1.05;;;52.70;22.20;;;;;;5008638;28;20144;-81
2023/09/04 11:49:09;;;;;;;2.25;1.20;;;;;;;;;;5007537;28;20526;-81
2023/09/04 11:51:36;;;;;;;3.05;1.58;;;51.90;22.30;;;;;;5009184;28;20734;-79
2023/09/04 11:54:06;;;;;;;1.98;1.17;;;52.00;23.00;;;;;;5008598;28;20049;-80
2023/09/04 11:56:32;;;;;;;1.08;0.77;;;;;;;;;;5004984;28;21481;-83
2023/09/04 11:58:58;;;;;;;2.00;1.40;;;;;;;;;;5008933;28;20053;-79
2023/09/04 12:01:24;;;;;;;1.75;1.27;;;;;;;;;;5008537;28;20030;-79
2023/09/04 12:03:53;;;;;;;2.53;1.30;;;;;;;;;;5007202;28;20045;-80
2023/09/04 12:06:19;;;;;;;2.22;1.60;;;;;;;;;;5007500;28;20046;-78
2023/09/04 12:08:45;;;;;;;3.85;1.35;;;46.70;27.30;;;;;;5008692;28;20025;-78
2023/09/04 12:11:10;;;;;;;;;;;45.80;25.30;;;;;;5011318;28;20040;-77
2023/09/04 12:13:36;;;;;;;2.28;1.50;;;;;;;;;;5008749;28;19917;-78
2023/09/04 12:16:06;;;;;;;1.75;1.20;;;44.00;26.30;;;;;;5008119;28;20037;-78
2023/09/04 12:18:38;;;;;;;1.40;1.00;;;42.90;27.20;;;;;;5008304;28;20034;-78
2023/09/04 12:21:10;;;;;;;3.05;1.27;;;;;;;;;;5008028;28;20022;-77
2023/09/04 12:23:45;;;;;;;1.83;1.25;;;40.70;28.70;;;;;;5007717;28;20133;-78
2023/09/04 12:26:16;;;;;;;1.58;1.08;;;40.30;28.80;;;;;;5008310;28;20529;-79
2023/09/04 12:28:42;;;;;;;4.20;1.50;;;40.10;29.40;;;;;;5008614;28;20033;-79
2023/09/04 12:31:10;;;;;;;2.35;1.58;;;39.70;29.80;;;;;;5007652;28;20014;-79
2023/09/04 12:33:43;;;;;;;2.70;1.60;;;39.00;30.10;;;;;;5008210;28;20029;-79
2023/09/04 12:36:11;;;;;;;3.40;1.42;;;38.20;30.90;;;;;;5008219;28;20029;-79
2023/09/04 12:38:37;;;;;;;2.65;1.52;;;37.80;31.60;;;;;;5007660;28;20092;-79
2023/09/04 12:41:04;;;;;;;2.03;1.70;;;;;;;;;;5007009;28;20036;-79
2023/09/04 12:43:29;;;;;;;;;;;37.30;32.40;;;;;;5009041;28;20036;-83
2023/09/04 12:45:55;;;;;;;;;;;37.30;32.60;;;;;;5007856;28;20290;-82
2023/09/04 12:48:22;;;;;;;5.40;1.50;;;;;;;;;;5008059;28;20373;-82
2023/09/04 12:50:49;;;;;;;5.03;1.55;;;;;;;;;;5008125;28;20499;-81
2023/09/04 12:53:15;;;;;;;3.72;1.65;;;;;;;;;;5005749;28;20037;-81
2023/09/04 12:55:41;;;;;;;2.70;1.88;;;;;;;;;;5008033;28;20030;-81
2023/09/04 12:58:11;;;;;;;2.38;2.10;;;36.30;33.70;;;;;;5009055;28;20064;-83
2023/09/04 13:00:38;;;;;;;4.43;2.15;;;;;;;;;;5007350;28;20026;-80
2023/09/04 13:03:06;;;;;;;3.53;1.67;;;35.90;34.00;;;;;;5008126;28;20474;-81
2023/09/04 13:05:33;;;;;;;3.38;1.80;;;;;;;;;;5007710;28;20096;-80
2023/09/04 13:07:59;;;;;;;1.60;1.30;;;;;;;;;;5007022;28;20021;-80
2023/09/04 13:10:25;;;;;;;2.05;1.70;;;;;;;;;;5007793;28;20034;-80
2023/09/04 13:12:51;;;;;;;2.38;1.73;;;;;;;;;;5007832;28;20196;-80
2023/09/04 13:15:17;;;;;;;2.75;1.38;;;;;;;;;;5007595;28;20022;-82
2023/09/04 13:17:43;;;;;;;2.88;1.55;;;;;;;;;;5007530;28;20053;-80
2023/09/04 13:20:10;;;;;;;1.77;1.25;;;35.20;35.30;;;;;;5007066;28;20022;-81
2023/09/04 13:22:36;;;;;;;3.15;1.98;;;;;;;;;;5007793;28;20026;-81
2023/09/04 13:25:02;;;;;;;4.50;2.00;;;;;;;;;;5007757;28;20069;-81
2023/09/04 13:27:28;;;;;;;3.05;1.67;;;;;;;;;;5007801;28;20112;-81
2023/09/04 13:29:54;;;;;;;2.05;1.27;;;;;;;;;;5007923;28;20022;-81
2023/09/04 13:32:21;;;;;;;2.65;1.30;;;;;;;;;;5007436;28;20036;-81
2023/09/04 13:34:47;;;;;;;2.38;1.45;;;;;;;;;;5007662;28;20022;-80
2023/09/04 13:37:14;;;;;;;2.05;1.42;;;;;;;;;;5007341;28;20334;-81
2023/09/04 13:39:40;;;;;;;1.98;1.25;;;;;;;;;;5007569;28;20034;-80
2023/09/04 13:42:06;;;;;;;1.88;1.00;;;;;;;;;;5006864;28;20372;-81
2023/09/04 13:44:32;;;;;;;3.15;1.50;;;;;;;;;;5007741;28;20026;-79
2023/09/04 13:46:57;;;;;;;2.60;1.58;;;;;;;;;;5006834;28;20473;-81
2023/09/04 13:49:23;;;;;;;2.20;1.63;;;;;;;;;;5007610;28;20018;-79
2023/09/04 13:51:49;;;;;;;3.33;1.77;;;;;;;;;;5006966;28;20041;-79
2023/09/04 13:54:15;;;;;;;4.05;3.10;;;;;;;;;;5002553;28;20053;-79